Time;durP1;ratioP1;P1;durP2;ratioP2;P2;SDS_P1;SDS_P2;PMS_P1;PMS_P2;Temp;Humidity;BMP_temperature;BMP_pressure;BME280_temperature;BME280_humidity;BME280_pressure;Samples;Min_cycle;Max_cycle;Signal;HPM_P1;HPM_P2
2024/03/11 00:01:04;;;;;;;16.23;9.93;;;;;;;;;;4990595;28;20051;-75
2024/03/11 00:03:30;;;;;;;19.25;11.07;;;;;;;;;;4995797;28;20096;-75
2024/03/11 00:05:55;;;;;;;18.92;9.73;;;;;;;;;;4983357;28;20030;-75
2024/03/11 00:08:21;;;;;;;16.83;9.35;;;;;;;;;;4990848;28;20034;-75
2024/03/11 00:10:48;;;;;;;16.75;9.45;;;;;;;;;;4990674;28;20498;-75
2024/03/11 00:13:16;;;;;;;15.07;9.57;;;;;;;;;;4992977;28;20461;-75
2024/03/11 00:15:43;;;;;;;15.55;9.73;;;;;;;;;;4986852;28;20034;-75
2024/03/11 00:18:10;;;;;;;14.75;9.63;;;;;;;;;;4987822;28;20109;-75
2024/03/11 00:20:35;;;;;;;13.52;8.75;;;;;;;;;;4990523;28;20038;-75
2024/03/11 00:23:01;;;;;;;16.15;9.55;;;;;;;;;;4990649;28;20042;-75
2024/03/11 00:25:27;;;;;;;17.15;10.75;;;;;;;;;;4991885;28;20029;-75
2024/03/11 00:27:52;;;;;;;14.90;9.10;;;;;;;;;;4989314;28;20030;-75
2024/03/11 00:30:17;;;;;;;16.38;9.73;;;;;;;;;;4990274;28;20110;-75
2024/03/11 00:32:46;;;;;;;16.50;11.00;;;;;;;;;;4994029;28;20041;-75
2024/03/11 00:35:11;;;;;;;15.82;10.30;;;;;;;;;;4995410;28;20042;-75
2024/03/11 00:37:37;;;;;;;14.95;8.88;;;;;;;;;;4994520;28;20105;-75
2024/03/11 00:40:05;;;;;;;14.15;9.35;;;;;;;;;;4994458;28;20054;-75
2024/03/11 00:42:34;;;;;;;16.15;10.07;;;;;;;;;;4994920;28;20034;-75
2024/03/11 00:44:59;;;;;;;15.45;10.00;;;;;;;;;;4998819;28;20042;-76
2024/03/11 00:47:24;;;;;;;17.30;10.07;;;;;;;;;;4994173;28;20121;-75
2024/03/11 00:49:49;;;;;;;16.35;9.55;;;;;;;;;;4992820;28;20097;-76
2024/03/11 00:52:15;;;;;;;25.30;10.07;;;;;;;;;;4995136;28;20414;-76
2024/03/11 00:54:40;;;;;;;16.05;9.38;;;;;;;;;;4999661;28;20045;-75
2024/03/11 00:57:06;;;;;;;14.88;8.93;;;;;;;;;;4992313;28;20077;-75
2024/03/11 00:59:31;;;;;;;14.70;9.85;;;;;;;;;;4998764;28;20038;-75
2024/03/11 01:01:56;;;;;;;16.00;8.50;;;;;;;;;;4993498;28;20038;-75
2024/03/11 01:04:22;;;;;;;17.45;10.35;;;;;;;;;;4994736;28;20058;-75
2024/03/11 01:06:48;;;;;;;16.92;10.30;;;;;;;;;;4993923;28;20479;-76
2024/03/11 01:09:13;;;;;;;14.98;9.45;;;;;;;;;;4993804;28;20030;-75
2024/03/11 01:11:39;;;;;;;14.93;8.95;;;;;;;;;;4993299;28;20026;-76
2024/03/11 01:14:04;;;;;;;15.55;10.00;;;;;;;;;;4996699;28;20035;-76
2024/03/11 01:16:29;;;;;;;15.27;8.88;;;;;;;;;;4993567;28;20511;-75
2024/03/11 01:18:56;;;;;;;16.48;9.38;;;;;;;;;;4993760;28;20498;-76
2024/03/11 01:21:21;;;;;;;15.32;9.25;;;;;;;;;;4993285;28;20054;-75
2024/03/11 01:23:47;;;;;;;16.42;9.40;;;;;;;;;;4998077;28;20030;-75
2024/03/11 01:26:12;;;;;;;15.85;9.52;;;;;;;;;;4993155;28;20483;-75
2024/03/11 01:28:37;;;;;;;15.60;8.95;;;;;;;;;;4993614;28;20389;-75
2024/03/11 01:31:04;;;;;;;15.07;8.63;;;;;;;;;;4993456;28;20031;-75
2024/03/11 01:33:29;;;;;;;12.23;8.07;;;;;;;;;;4997081;28;20034;-75
2024/03/11 01:35:55;;;;;;;17.38;10.07;;;;;;;;;;4991859;28;20117;-75
2024/03/11 01:38:20;;;;;;;15.13;10.38;;;;;;;;;;4993359;28;20026;-75
2024/03/11 01:40:46;;;;;;;13.70;8.65;;;;;;;;;;4991998;28;20042;-75
2024/03/11 01:43:11;;;;;;;17.20;9.30;;;;;;;;;;4991987;28;20125;-75
2024/03/11 01:45:37;;;;;;;15.38;9.52;;;;;;;;;;4994453;28;20027;-75
2024/03/11 01:48:03;;;;;;;13.85;9.20;;;;;;;;;;4993246;28;20509;-75
2024/03/11 01:50:28;;;;;;;16.52;10.10;;;;;;;;;;4992950;28;20376;-75
2024/03/11 01:52:56;;;;;;;15.77;10.20;;;;;;;;;;4990423;28;20033;-75
2024/03/11 01:55:24;;;;;;;16.75;9.70;;;;;;;;;;4994991;28;20030;-75
2024/03/11 01:57:50;;;;;;;17.30;9.60;;;;;;;;;;4993055;28;20376;-75
2024/03/11 02:00:19;;;;;;;13.95;8.55;;;;;;;;;;4992689;28;20109;-75
2024/03/11 02:02:44;;;;;;;15.30;9.35;;;;;;;;;;4999209;28;20058;-76
2024/03/11 02:05:13;;;;;;;14.77;9.43;;;;;;;;;;4996881;28;20060;-75
2024/03/11 02:07:39;;;;;;;13.80;8.98;;;;;;;;;;4992771;28;20045;-75
2024/03/11 02:10:13;;;;;;;16.42;10.05;;;;;;;;;;4992802;28;20034;-76
2024/03/11 02:12:38;;;;;;;16.77;10.80;;;;;;;;;;4990521;28;20026;-75
2024/03/11 02:15:03;;;;;;;12.82;9.02;;;;;;;;;;4994060;28;20522;-75
2024/03/11 02:17:28;;;;;;;13.77;8.95;;;;;;;;;;4992548;28;20038;-75
2024/03/11 02:19:54;;;;;;;15.85;9.07;;;;;;;;;;4992580;28;20059;-76
2024/03/11 02:22:19;;;;;;;16.50;9.95;;;;;;;;;;4992055;28;20059;-75
2024/03/11 02:24:44;;;;;;;14.73;9.23;;;;;;;;;;4994407;28;20766;-75
2024/03/11 02:27:09;;;;;;;13.73;8.93;;;;;;;;;;4991153;28;20080;-75
2024/03/11 02:29:35;;;;;;;16.23;8.52;;;;;;;;;;4992330;28;20018;-75
2024/03/11 02:32:01;;;;;;;15.45;8.45;;;;;;;;;;4991983;28;20038;-75
2024/03/11 02:34:26;;;;;;;14.05;8.30;;;;;;;;;;4994188;28;20034;-75
2024/03/11 02:36:51;;;;;;;14.93;8.45;;;;;;;;;;4990829;28;20445;-76
2024/03/11 02:39:19;;;;;;;14.88;9.13;;;;;;;;;;4992163;28;20045;-76
2024/03/11 02:41:44;;;;;;;15.63;8.70;;;;;;;;;;4995544;28;20038;-75
2024/03/11 02:44:12;;;;;;;15.55;8.88;;;;;;;;;;4997873;28;20021;-75
2024/03/11 02:46:37;;;;;;;16.55;9.85;;;;;;;;;;4989558;28;20048;-75
2024/03/11 02:49:03;;;;;;;14.10;9.95;;;;;;;;;;4992137;28;20471;-75
2024/03/11 02:51:30;;;;;;;14.65;9.68;;;;;;;;;;4991615;28;20038;-75
2024/03/11 02:53:56;;;;;;;14.15;8.70;;;;;;;;;;5000959;28;20072;-76
2024/03/11 02:56:22;;;;;;;14.32;8.77;;;;;;;;;;4991840;28;20552;-75
2024/03/11 02:58:47;;;;;;;14.43;8.98;;;;;;;;;;4998242;28;20034;-75
2024/03/11 03:01:13;;;;;;;14.13;8.10;;;;;;;;;;4991511;28;20081;-75
2024/03/11 03:03:38;;;;;;;15.77;9.05;;;;;;;;;;4993108;28;20479;-75
2024/03/11 03:06:03;;;;;;;15.93;8.98;;;;;;;;;;4990522;28;20034;-75
2024/03/11 03:08:28;;;;;;;14.20;9.13;;;;;;;;;;4991517;28;20037;-75
2024/03/11 03:10:54;;;;;;;15.50;8.68;;;;;;;;;;4991599;28;20475;-75
2024/03/11 03:13:20;;;;;;;16.00;9.02;;;;;;;;;;4992695;28;20054;-75
2024/03/11 03:15:45;;;;;;;11.35;8.43;;;;;;;;;;4992242;28;20022;-75
2024/03/11 03:18:10;;;;;;;12.30;8.15;;;;;;;;;;4991577;28;20042;-75
2024/03/11 03:20:36;;;;;;;14.57;8.63;;;;;;;;;;4991348;28;20109;-75
2024/03/11 03:23:01;;;;;;;15.68;8.93;;;;;;;;;;4991936;28;20673;-75
2024/03/11 03:25:32;;;;;;;14.10;8.30;;;;;;;;;;4994354;28;20035;-75
2024/03/11 03:27:58;;;;;;;15.87;9.30;;;;;;;;;;4991586;28;20039;-75
2024/03/11 03:30:23;;;;;;;13.57;8.07;;;;;;;;;;4991052;28;20288;-75
2024/03/11 03:32:48;;;;;;;13.80;8.38;;;;;;;;;;4991862;28;20037;-75
2024/03/11 03:35:14;;;;;;;14.80;9.07;;;;;;;;;;4993878;28;20395;-75
2024/03/11 03:37:39;;;;;;;14.52;9.30;;;;;;;;;;5004133;28;20034;-75
2024/03/11 03:40:15;;;;;;;13.55;8.07;;;;;;;;;;4993529;28;20033;-75
2024/03/11 03:42:41;;;;;;;15.13;8.23;;;;;;;;;;4989825;28;20546;-75
2024/03/11 03:45:09;;;;;;;15.07;9.63;;;;;;;;;;4992774;28;20034;-75
2024/03/11 03:47:35;;;;;;;19.13;10.13;;;;;;;;;;4990956;28;20573;-75
2024/03/11 03:50:00;;;;;;;13.68;8.90;;;;;;;;;;4994661;28;20034;-75
2024/03/11 03:52:25;;;;;;;16.77;8.60;;;;;;;;;;4990388;28;20040;-75
2024/03/11 03:54:51;;;;;;;13.55;8.60;;;;;;;;;;4994758;28;20041;-75
2024/03/11 03:57:17;;;;;;;13.27;8.52;;;;;;;;;;4990719;28;20058;-74
2024/03/11 03:59:42;;;;;;;16.15;9.35;;;;;;;;;;4990963;28;20788;-76
2024/03/11 04:02:08;;;;;;;12.90;7.75;;;;;;;;;;4990408;28;20116;-76
2024/03/11 04:04:37;;;;;;;14.88;9.48;;;;;;;;;;4996281;28;20034;-76
2024/03/11 04:07:03;;;;;;;14.57;8.40;;;;;;;;;;4990763;28;20077;-76
2024/03/11 04:09:28;;;;;;;13.88;8.88;;;;;;;;;;4989418;28;20506;-75
2024/03/11 04:11:54;;;;;;;14.40;8.30;;;;;;;;;;4990243;28;20049;-75
2024/03/11 04:14:19;;;;;;;14.68;8.40;;;;;;;;;;4990155;28;20031;-75
2024/03/11 04:16:44;;;;;;;14.82;9.35;;;;;;;;;;4994279;28;20395;-75
2024/03/11 04:19:10;;;;;;;17.30;9.93;;;;;;;;;;4990484;28;20483;-75
2024/03/11 04:21:37;;;;;;;17.08;9.93;;;;;;;;;;4989887;28;20026;-75
2024/03/11 04:24:02;;;;;;;14.82;8.52;;;;;;;;;;4991612;28;20105;-76
2024/03/11 04:26:29;;;;;;;16.45;9.05;;;;;;;;;;4990302;28;20102;-75
2024/03/11 04:28:54;;;;;;;13.90;9.07;;;;;;;;;;4989330;28;20122;-76
2024/03/11 04:31:19;;;;;;;15.25;8.82;;;;;;;;;;4984133;28;20113;-76
2024/03/11 04:33:45;;;;;;;13.02;8.25;;;;;;;;;;4992207;28;20031;-75
2024/03/11 04:36:10;;;;;;;13.82;8.80;;;;;;;;;;4992141;28;20065;-75
2024/03/11 04:38:36;;;;;;;14.93;9.30;;;;;;;;;;4990344;28;20072;-76
2024/03/11 04:41:02;;;;;;;12.55;9.18;;;;;;;;;;4990319;28;20046;-76
2024/03/11 04:43:27;;;;;;;15.57;10.02;;;;;;;;;;4992318;28;20132;-76
2024/03/11 04:45:53;;;;;;;15.57;9.10;;;;;;;;;;4993410;28;20479;-76
2024/03/11 04:48:19;;;;;;;17.25;10.75;;;;;;;;;;4990262;28;20035;-75
2024/03/11 04:50:44;;;;;;;18.17;11.88;;;;;;;;;;4989719;28;20030;-75
2024/03/11 04:53:10;;;;;;;18.88;12.80;;;;;;;;;;4977323;28;20124;-76
2024/03/11 04:55:38;;;;;;;20.27;12.52;;;;;;;;;;4990602;28;20034;-77
2024/03/11 04:58:03;;;;;;;20.77;12.68;;;;;;;;;;4990322;28;20034;-76
2024/03/11 05:00:30;;;;;;;18.15;12.95;;;;;;;;;;4989411;28;20750;-76
2024/03/11 05:02:59;;;;;;;18.95;12.93;;;;;;;;;;4992066;28;20131;-76
2024/03/11 05:05:25;;;;;;;21.00;13.82;;;;;;;;;;4989422;28;20031;-77
2024/03/11 05:07:50;;;;;;;21.55;13.73;;;;;;;;;;4989038;28;20045;-76
2024/03/11 05:10:16;;;;;;;21.40;13.90;;;;;;;;;;4989992;28;20027;-76
2024/03/11 05:12:41;;;;;;;19.88;13.30;;;;;;;;;;4989370;28;20049;-76
2024/03/11 05:15:09;;;;;;;19.33;14.05;;;;;;;;;;4993713;28;20034;-76
2024/03/11 05:17:34;;;;;;;21.67;13.43;;;;;;;;;;4988946;28;20030;-76
2024/03/11 05:20:01;;;;;;;17.98;12.50;;;;;;;;;;4993746;28;20383;-77
2024/03/11 05:22:27;;;;;;;21.15;14.70;;;;;;;;;;4992759;28;20026;-76
2024/03/11 05:24:52;;;;;;;23.92;16.63;;;;;;;;;;4999145;28;20034;-76
2024/03/11 05:27:20;;;;;;;20.42;15.23;;;;;;;;;;4991977;28;20442;-76
2024/03/11 05:29:45;;;;;;;19.23;14.23;;;;;;;;;;4993338;28;20387;-76
2024/03/11 05:32:10;;;;;;;20.90;15.50;;;;;;;;;;4993231;28;20035;-76
2024/03/11 05:34:35;;;;;;;19.33;13.93;;;;;;;;;;4995896;28;20037;-76
2024/03/11 05:37:01;;;;;;;20.77;14.20;;;;;;;;;;4992261;28;20038;-76
2024/03/11 05:39:26;;;;;;;20.40;15.10;;;;;;;;;;4992967;28;20458;-76
2024/03/11 05:41:52;;;;;;;18.55;13.43;;;;;;;;;;4993517;28;20038;-76
2024/03/11 05:44:19;;;;;;;19.85;14.52;;;;;;;;;;4994609;28;20036;-75
2024/03/11 05:46:44;;;;;;;16.35;12.25;;;;;;;;;;4992599;28;20038;-75
2024/03/11 05:49:13;;;;;;;20.58;15.43;;;;;;;;;;4993353;28;20033;-76
2024/03/11 05:51:39;;;;;;;16.88;12.13;;;;;;;;;;4992050;28;20038;-74
2024/03/11 05:54:05;;;;;;;16.67;12.27;;;;;;;;;;4994362;28;20042;-74
2024/03/11 05:56:31;;;;;;;18.88;13.90;;;;;;;;;;4991696;28;20034;-75
2024/03/11 05:58:57;;;;;;;20.30;14.68;;;;;;;;;;4988077;28;20514;-74
2024/03/11 06:01:24;;;;;;;21.08;15.75;;;;;;;;;;4991100;28;20060;-75
2024/03/11 06:03:49;;;;;;;20.95;14.43;;;;;;;;;;4993031;28;20034;-74
2024/03/11 06:06:17;;;;;;;25.50;17.00;;;;;;;;;;4994161;28;20045;-74
2024/03/11 06:08:44;;;;;;;20.05;14.05;;;;;;;;;;4994493;28;20042;-74
2024/03/11 06:11:09;;;;;;;19.73;14.25;;;;;;;;;;4989843;28;20049;-74
2024/03/11 06:13:34;;;;;;;20.50;14.45;;;;;;;;;;4990467;28;20038;-74
2024/03/11 06:16:00;;;;;;;20.13;14.48;;;;;;;;;;4992557;28;20042;-74
2024/03/11 06:18:25;;;;;;;19.77;15.10;;;;;;;;;;4992019;28;20057;-74
2024/03/11 06:20:50;;;;;;;19.25;13.40;;;;;;;;;;4992498;28;20032;-74
2024/03/11 06:23:18;;;;;;;19.20;13.98;;;;;;;;;;4992298;28;20076;-75
2024/03/11 06:25:43;;;;;;;24.10;17.27;;;;;;;;;;4993137;28;20037;-74
2024/03/11 06:28:09;;;;;;;26.13;18.45;;;;;;;;;;4992055;28;20035;-75
2024/03/11 06:30:34;;;;;;;24.42;15.57;;;;;;;;;;4991022;28;20042;-74
2024/03/11 06:32:59;;;;;;;17.05;12.48;;;;;;;;;;4991348;28;20042;-74
2024/03/11 06:35:25;;;;;;;18.83;12.20;;;;;;;;;;4995524;28;20038;-74
2024/03/11 06:37:50;;;;;;;19.58;14.07;;;;;;;;;;4992341;28;20112;-74
2024/03/11 06:40:17;;;;;;;22.10;14.75;;;;;;;;;;4991709;28;20597;-74
2024/03/11 06:42:46;;;;;;;19.52;14.70;;;;;;;;;;4991709;28;20030;-74
2024/03/11 06:45:11;;;;;;;18.77;14.77;;;;;;;;;;4994978;28;20034;-74
2024/03/11 06:47:36;;;;;;;19.40;13.25;;;;;;;;;;4990722;28;20034;-74
2024/03/11 06:50:02;;;;;;;23.75;15.35;;;;;;;;;;4991934;28;20041;-74
2024/03/11 06:52:27;;;;;;;19.67;14.38;;;;;;;;;;4992298;28;20129;-74
2024/03/11 06:54:52;;;;;;;17.83;13.30;;;;;;;;;;4992068;28;20038;-74
2024/03/11 06:57:18;;;;;;;18.70;13.77;;;;;;;;;;4994065;28;20034;-74
2024/03/11 06:59:45;;;;;;;20.90;15.65;;;;;;;;;;4991677;28;20447;-74
2024/03/11 07:02:10;;;;;;;16.83;13.05;;;;;;;;;;4990249;28;20037;-74
2024/03/11 07:04:36;;;;;;;17.75;13.95;;;;;;;;;;4991799;28;20038;-74
2024/03/11 07:07:01;;;;;;;18.70;14.02;;;;;;;;;;4989413;28;20042;-74
2024/03/11 07:09:27;;;;;;;18.35;12.38;;;;;;;;;;4991437;28;20084;-74
2024/03/11 07:11:53;;;;;;;20.00;14.13;;;;;;;;;;4993164;28;20042;-74
2024/03/11 07:14:18;;;;;;;19.30;13.57;;;;;;;;;;4997810;28;20046;-74
2024/03/11 07:16:45;;;;;;;21.70;15.70;;;;;;;;;;4991414;28;20026;-74
2024/03/11 07:19:10;;;;;;;20.60;15.07;;;;;;;;;;4991521;28;20037;-74
2024/03/11 07:21:37;;;;;;;21.02;15.52;;;;;;;;;;4990741;28;20038;-75
2024/03/11 07:24:03;;;;;;;17.40;13.32;;;;;;;;;;4992759;28;20109;-74
2024/03/11 07:26:28;;;;;;;20.90;13.80;;;;;;;;;;4996071;28;20114;-75
2024/03/11 07:28:53;;;;;;;22.40;14.25;;;;;;;;;;4993225;28;20449;-74
2024/03/11 07:31:18;;;;;;;17.55;13.60;;;;;;;;;;4991090;28;20610;-74
2024/03/11 07:33:49;;;;;;;16.55;12.00;;;;;;;;;;4991987;28;20450;-74
2024/03/11 07:36:15;;;;;;;17.88;12.32;;;;;;;;;;4991390;28;20127;-74
2024/03/11 07:38:41;;;;;;;16.98;13.15;;;;;;;;;;4992871;28;20117;-74
2024/03/11 07:41:08;;;;;;;16.80;12.82;;;;;;;;;;4989451;28;20506;-74
2024/03/11 07:43:34;;;;;;;15.50;11.45;;;;;;;;;;4990899;28;20023;-74
2024/03/11 07:45:59;;;;;;;16.33;11.32;;;;;;;;;;4992026;28;20510;-74
2024/03/11 07:48:24;;;;;;;16.17;11.60;;;;;;;;;;4990862;28;20459;-75
2024/03/11 07:50:50;;;;;;;15.88;11.57;;;;;;;;;;4990923;28;20057;-75
2024/03/11 07:53:15;;;;;;;19.85;15.20;;;;;;;;;;4989704;28;20034;-74
2024/03/11 07:55:40;;;;;;;21.50;15.15;;;;;;;;;;4992270;28;20026;-74
2024/03/11 07:58:06;;;;;;;18.08;13.23;;;;;;;;;;4990911;28;20518;-74
2024/03/11 08:00:35;;;;;;;15.50;11.40;;;;;;;;;;4990450;28;20117;-74
2024/03/11 08:03:01;;;;;;;13.10;9.05;;;;;;;;;;5001661;28;20045;-74
2024/03/11 08:05:27;;;;;;;11.38;8.50;;;;;;;;;;4991263;28;20407;-74
2024/03/11 08:07:52;;;;;;;12.45;9.48;;;;;;;;;;4991032;28;20343;-74
2024/03/11 08:10:18;;;;;;;11.48;8.30;;;;;;;;;;4990367;28;20030;-74
2024/03/11 08:12:44;;;;;;;10.70;7.78;;;;;;;;;;4989965;28;20089;-74
2024/03/11 08:15:14;;;;;;;11.10;8.30;;;;;;;;;;4990506;28;20415;-74
2024/03/11 08:17:41;;;;;;;10.32;6.85;;;;;;;;;;4990377;28;20034;-74
2024/03/11 08:20:08;;;;;;;25.15;12.15;;;;;;;;;;4989723;28;20054;-74
2024/03/11 08:22:47;;;;;;;18.75;10.82;;;;;;;;;;4988771;28;20472;-74
2024/03/11 08:25:14;;;;;;;18.40;11.88;;;;;;;;;;4993920;28;20114;-74
2024/03/11 08:27:39;;;;;;;11.15;8.02;;;;;;;;;;4990167;28;20491;-74
2024/03/11 08:30:07;;;;;;;9.10;6.47;;;;;;;;;;4990619;28;20050;-74
2024/03/11 08:32:33;;;;;;;10.15;6.32;;;;;;;;;;4989962;28;20058;-74
2024/03/11 08:34:59;;;;;;;8.88;6.22;;;;;;;;;;4991622;28;20035;-74
2024/03/11 08:37:24;;;;;;;8.45;6.05;;;;;;;;;;4990849;28;20395;-74
2024/03/11 08:39:50;;;;;;;8.35;5.03;;;;;;;;;;4993530;28;20041;-74
2024/03/11 08:42:16;;;;;;;6.22;4.13;;;;;;;;;;4990098;28;20045;-74
2024/03/11 08:44:43;;;;;;;8.35;5.63;;;;;;;;;;4991240;28;20018;-74
2024/03/11 08:47:11;;;;;;;7.38;5.00;;;;;;;;;;4992490;28;20069;-74
2024/03/11 08:49:36;;;;;;;6.40;4.20;;;;;;;;;;4989022;28;20065;-74
2024/03/11 08:52:01;;;;;;;5.57;3.55;;;;;;;;;;4990981;28;20062;-75
2024/03/11 08:54:28;;;;;;;6.32;3.53;;;;;;;;;;4995209;28;20069;-75
2024/03/11 08:56:56;;;;;;;7.60;4.18;;;;;;;;;;4994086;28;20045;-74
2024/03/11 08:59:21;;;;;;;8.98;4.35;;;;;;;;;;4994099;28;20184;-74
2024/03/11 09:01:47;;;;;;;5.07;2.92;;;;;;;;;;4997180;28;20125;-75
2024/03/11 09:04:12;;;;;;;9.93;5.32;;;;;;;;;;4992223;28;20027;-74
2024/03/11 09:06:41;;;;;;;8.75;4.97;;;;;;;;;;4994002;28;20031;-74
2024/03/11 09:09:07;;;;;;;7.07;4.15;;;;;;;;;;4994375;28;20031;-74
2024/03/11 09:11:32;;;;;;;6.85;4.20;;;;;;;;;;4989427;28;20038;-75
2024/03/11 09:13:58;;;;;;;7.50;4.60;;;;;;;;;;4995101;28;20033;-74
2024/03/11 09:16:24;;;;;;;7.85;5.03;;;;;;;;;;4995501;28;20411;-74
2024/03/11 09:18:49;;;;;;;7.22;4.70;;;;;;;;;;4989771;28;20046;-74
2024/03/11 09:21:15;;;;;;;5.95;3.60;;;;;;;;;;4998527;28;20041;-75
2024/03/11 09:23:40;;;;;;;6.15;3.53;;;;;;;;;;4994519;28;20026;-74
2024/03/11 09:26:10;;;;;;;5.18;2.95;;;;;;;;;;4993559;28;20034;-74
2024/03/11 09:28:35;;;;;;;5.70;3.78;;;;;;;;;;4992958;28;20034;-74
2024/03/11 09:31:00;;;;;;;4.65;2.63;;;;;;;;;;4993056;28;20026;-74
2024/03/11 09:33:27;;;;;;;4.47;2.13;;;;;;;;;;4992808;28;20538;-74
2024/03/11 09:35:52;;;;;;;3.72;2.30;;;;;;;;;;4987738;28;20042;-74
2024/03/11 09:38:19;;;;;;;3.33;2.13;;;;;;;;;;4995066;28;20096;-74
2024/03/11 09:40:46;;;;;;;4.72;2.30;;;;;;;;;;4990926;28;20109;-74
2024/03/11 09:43:13;;;;;;;3.63;2.00;;;;;;;;;;4993961;28;20038;-74
2024/03/11 09:45:40;;;;;;;3.72;2.35;;;;;;;;;;4994642;28;20037;-74
2024/03/11 09:48:05;;;;;;;4.05;2.20;;;;;;;;;;4992824;28;20499;-74
2024/03/11 09:50:32;;;;;;;4.60;3.08;;;;;;;;;;4992338;28;20034;-74
2024/03/11 09:52:58;;;;;;;4.78;2.00;;;;;;;;;;4991228;28;20117;-74
2024/03/11 09:55:28;;;;;;;4.50;2.30;;;;;;;;;;4993251;28;20117;-75
2024/03/11 09:57:54;;;;;;;3.25;1.55;;;;;;;;;;5000394;28;20104;-74
2024/03/11 10:00:23;;;;;;;3.30;1.60;;;;;;;;;;4992664;28;20454;-74
2024/03/11 10:02:53;;;;;;;4.00;1.95;;;;;;;;;;4989195;28;20046;-75
2024/03/11 10:05:19;;;;;;;3.10;1.42;;;;;;;;;;4994687;28;20407;-74
2024/03/11 10:07:45;;;;;;;3.08;1.88;;;;;;;;;;4990442;28;20026;-74
2024/03/11 10:10:12;;;;;;;3.00;1.52;;;;;;;;;;4992692;28;20446;-74
2024/03/11 10:12:48;;;;;;;5.72;1.98;;;;;;;;;;4990879;28;20057;-74
2024/03/11 10:15:30;;;;;;;4.63;2.45;;;;;;;;;;4995791;28;20030;-74
2024/03/11 10:17:56;;;;;;;3.10;1.70;;;;;;;;;;4992766;28;20054;-74
2024/03/11 10:20:22;;;;;;;3.08;1.75;;;;;;;;;;4992203;28;20048;-74
2024/03/11 10:22:48;;;;;;;2.72;1.25;;;;;;;;;;4993574;28;20117;-75
2024/03/11 10:25:21;;;;;;;2.85;1.33;;;;;;;;;;4996960;28;20594;-74
2024/03/11 10:27:47;;;;;;;1.90;0.93;;;;;;;;;;4998031;28;20035;-74
2024/03/11 10:30:22;;;;;;;1.90;1.00;;;;;;;;;;4992192;28;20172;-74
2024/03/11 10:33:01;;;;;;;3.17;1.40;;;;;;;;;;4995335;28;20045;-74
2024/03/11 10:35:27;;;;;;;2.58;1.20;;;;;;;;;;4994866;28;20411;-74
2024/03/11 10:38:05;;;;;;;2.53;1.10;;;;;;;;;;4991580;28;20046;-74
2024/03/11 10:40:30;;;;;;;1.58;0.93;;;;;;;;;;4989620;28;20061;-74
2024/03/11 10:42:58;;;;;;;2.42;1.00;;;;;;;;;;4991858;28;20069;-75
2024/03/11 10:45:33;;;;;;;1.95;1.00;;;;;;;;;;4995348;28;20538;-74
2024/03/11 10:48:00;;;;;;;3.10;1.08;;;;;;;;;;4994124;28;20034;-75
2024/03/11 10:50:28;;;;;;;1.88;0.73;;;;;;;;;;4991725;28;20030;-74
2024/03/11 10:52:55;;;;;;;1.67;0.75;;;;;;;;;;4992844;28;20034;-74
2024/03/11 10:55:22;;;;;;;3.05;0.80;;;;;;;;;;4995125;28;20030;-75
2024/03/11 10:57:50;;;;;;;1.20;0.68;;;;;;;;;;4993707;28;20518;-74
2024/03/11 11:02:45;;;;;;;1.77;0.75;;;;;;;;;;4993929;28;20041;-75
2024/03/11 11:05:12;;;;;;;1.73;0.77;;;;;;;;;;4991044;28;20034;-74
2024/03/11 11:07:39;;;;;;;3.40;0.90;;;;;;;;;;4991610;28;20161;-75
2024/03/11 11:10:07;;;;;;;1.65;0.68;;;;;;;;;;4991902;28;20569;-75
2024/03/11 11:12:36;;;;;;;1.13;0.60;;;;;;;;;;4992308;28;20044;-75
2024/03/11 11:15:02;;;;;;;1.15;0.50;;;;;;;;;;4994343;28;20034;-75
2024/03/11 11:17:29;;;;;;;1.75;0.80;;;;;;;;;;4985646;28;20101;-74
2024/03/11 11:19:56;;;;;;;2.22;1.00;;;;;;;;;;4988072;28;20388;-75
2024/03/11 11:22:21;;;;;;;5.28;1.38;;;;;;;;;;4990828;28;20491;-74
2024/03/11 11:24:46;;;;;;;2.10;0.82;;;;;;;;;;4994858;28;20038;-74
2024/03/11 11:27:14;;;;;;;1.27;0.70;;;;;;;;;;4991799;28;20029;-74
2024/03/11 11:29:40;;;;;;;2.05;0.80;;;;;;;;;;4990254;28;20080;-75
2024/03/11 11:32:07;;;;;;;2.00;0.80;;;;;;;;;;4990893;28;20458;-75
2024/03/11 11:34:44;;;;;;;1.33;0.60;;;;;;;;;;4994533;28;20042;-75
2024/03/11 11:37:19;;;;;;;2.78;0.90;;;;;;;;;;4992934;28;20065;-75
2024/03/11 11:39:44;;;;;;;1.38;0.65;;;;;;;;;;4992590;28;20495;-75
2024/03/11 11:42:29;;;;;;;1.33;0.50;;;;;;;;;;4990675;28;20058;-75
2024/03/11 11:44:55;;;;;;;1.25;0.60;;;;;;;;;;4991117;28;20487;-74
2024/03/11 11:47:21;;;;;;;1.10;0.45;;;;;;;;;;4990912;28;20053;-74
2024/03/11 11:49:48;;;;;;;3.08;1.45;;;;;;;;;;4990950;28;20034;-74
2024/03/11 11:52:16;;;;;;;2.75;0.85;;;;;;;;;;4990458;28;20038;-74
2024/03/11 11:54:42;;;;;;;1.77;0.95;;;;;;;;;;4988521;28;20039;-74
2024/03/11 11:57:13;;;;;;;1.30;0.60;;;;;;;;;;4988035;28;20049;-74
2024/03/11 11:59:40;;;;;;;2.95;1.08;;;;;;;;;;4989424;28;20384;-74
2024/03/11 12:02:13;;;;;;;1.52;0.80;;;;;;;;;;4990311;28;20092;-74
2024/03/11 12:04:47;;;;;;;3.50;1.08;;;;;;;;;;4993784;28;20057;-74
2024/03/11 12:07:12;;;;;;;1.95;0.85;;;;;;;;;;4994064;28;20057;-74
2024/03/11 12:09:46;;;;;;;0.70;0.50;;;;;;;;;;4989857;28;20427;-74
2024/03/11 12:12:11;;;;;;;1.35;0.70;;;;;;;;;;4987087;28;20042;-74
2024/03/11 12:14:36;;;;;;;1.75;0.90;;;;;;;;;;4993764;28;20030;-75
2024/03/11 12:17:03;;;;;;;13.23;3.78;;;;;;;;;;4993984;28;20069;-74
2024/03/11 12:19:30;;;;;;;4.75;1.45;;;;;;;;;;4990643;28;20030;-74
2024/03/11 12:21:55;;;;;;;3.35;1.25;;;;;;;;;;4990048;28;20044;-74
2024/03/11 12:24:23;;;;;;;1.50;0.80;;;;;;;;;;4990382;28;20376;-74
2024/03/11 12:26:50;;;;;;;2.05;0.88;;;;;;;;;;4991404;28;20031;-74
2024/03/11 12:29:16;;;;;;;1.92;0.90;;;;;;;;;;4993674;28;20109;-74
2024/03/11 12:31:42;;;;;;;1.38;0.60;;;;;;;;;;4993813;28;20535;-75
2024/03/11 12:34:11;;;;;;;1.05;0.68;;;;;;;;;;4995419;28;20083;-74
2024/03/11 12:36:37;;;;;;;1.83;0.70;;;;;;;;;;4995625;28;20045;-74
2024/03/11 12:39:07;;;;;;;1.75;0.60;;;;;;;;;;4994574;28;20146;-74
2024/03/11 12:41:40;;;;;;;1.52;0.70;;;;;;;;;;4993703;28;20042;-75
2024/03/11 12:44:13;;;;;;;2.80;0.90;;;;;;;;;;4997234;28;20587;-75
2024/03/11 12:46:42;;;;;;;3.58;1.50;;;;;;;;;;4996990;28;20502;-74
2024/03/11 12:49:08;;;;;;;1.77;0.70;;;;;;;;;;4999072;28;20034;-74
2024/03/11 12:51:34;;;;;;;1.83;1.00;;;;;;;;;;4993589;28;20026;-74
2024/03/11 12:54:29;;;;;;;5.35;2.67;;;;;;;;;;4995858;28;20038;-75
2024/03/11 12:57:09;;;;;;;4.20;1.40;;;;;;;;;;4983400;28;20053;-74
2024/03/11 12:59:35;;;;;;;2.60;1.13;;;;;;;;;;4990023;28;20034;-74
2024/03/11 13:02:17;;;;;;;2.25;1.00;;;;;;;;;;4993516;28;20035;-75
2024/03/11 13:04:43;;;;;;;1.30;0.75;;;;;;;;;;4994037;28;20053;-74
2024/03/11 13:07:10;;;;;;;1.25;0.70;;;;;;;;;;4994187;28;20030;-74
2024/03/11 13:09:35;;;;;;;2.08;1.13;;;;;;;;;;4996454;28;20520;-74
2024/03/11 13:12:01;;;;;;;1.77;0.63;;;;;;;;;;4992324;28;20307;-74
2024/03/11 13:14:27;;;;;;;2.05;0.88;;;;;;;;;;4994400;28;20030;-74
2024/03/11 13:16:53;;;;;;;1.27;0.70;;;;;;;;;;4995314;28;20117;-75
2024/03/11 13:19:19;;;;;;;1.23;0.63;;;;;;;;;;4992463;28;20108;-74
2024/03/11 13:21:49;;;;;;;1.08;0.47;;;;;;;;;;4993036;28;20515;-75
2024/03/11 13:24:14;;;;;;;1.25;0.65;;;;;;;;;;4995494;28;20022;-75
2024/03/11 13:26:40;;;;;;;1.60;0.82;;;;;;;;;;4996273;28;20403;-74
2024/03/11 13:29:06;;;;;;;1.85;0.65;;;;;;;;;;4993741;28;20042;-75
2024/03/11 13:31:31;;;;;;;2.00;0.80;;;;;;;;;;4993023;28;20027;-75
2024/03/11 13:33:57;;;;;;;2.13;0.90;;;;;;;;;;4991835;28;20568;-74
2024/03/11 13:36:22;;;;;;;4.03;1.55;;;;;;;;;;4997917;28;20034;-75
2024/03/11 13:38:47;;;;;;;1.13;0.50;;;;;;;;;;4992384;28;20032;-74
2024/03/11 13:41:13;;;;;;;0.97;0.53;;;;;;;;;;4991911;28;20034;-74
2024/03/11 13:43:39;;;;;;;2.75;0.88;;;;;;;;;;4993319;28;20324;-74
2024/03/11 13:46:05;;;;;;;3.60;0.50;;;;;;;;;;4994839;28;20073;-75
2024/03/11 13:48:30;;;;;;;1.83;1.00;;;;;;;;;;4994458;28;20026;-74
2024/03/11 13:50:56;;;;;;;2.45;0.85;;;;;;;;;;4992631;28;20031;-75
2024/03/11 13:53:22;;;;;;;2.45;0.65;;;;;;;;;;4992161;28;20039;-75
2024/03/11 13:55:49;;;;;;;0.98;0.55;;;;;;;;;;4995442;28;20037;-75
2024/03/11 13:58:15;;;;;;;2.83;0.90;;;;;;;;;;4993074;28;20042;-75
2024/03/11 14:00:47;;;;;;;3.40;0.70;;;;;;;;;;4992655;28;20113;-74
2024/03/11 14:03:13;;;;;;;1.02;0.50;;;;;;;;;;4987088;28;20050;-74
2024/03/11 14:05:38;;;;;;;2.08;0.70;;;;;;;;;;4996602;28;20077;-74
2024/03/11 14:08:04;;;;;;;1.40;0.60;;;;;;;;;;4991902;28;20030;-75
2024/03/11 14:10:31;;;;;;;1.48;0.50;;;;;;;;;;4992687;28;20499;-75
2024/03/11 14:12:56;;;;;;;2.22;0.70;;;;;;;;;;4991311;28;20039;-75
2024/03/11 14:15:24;;;;;;;1.77;0.50;;;;;;;;;;4997976;28;20083;-75
2024/03/11 14:17:49;;;;;;;2.10;1.00;;;;;;;;;;4992535;28;20026;-75
2024/03/11 14:20:21;;;;;;;1.00;0.50;;;;;;;;;;4992601;28;20030;-74
2024/03/11 14:22:47;;;;;;;1.50;0.70;;;;;;;;;;4992005;28;20086;-75
2024/03/11 14:25:16;;;;;;;1.20;0.60;;;;;;;;;;4993749;28;20058;-74
2024/03/11 14:27:46;;;;;;;2.10;0.50;;;;;;;;;;4992365;28;20861;-74
2024/03/11 14:30:14;;;;;;;1.02;0.40;;;;;;;;;;4992443;28;20038;-74